sensor_id;sensor_type;location;lat;lon;timestamp;temperature;humidity
5086;DHT22;4715;51.660;7.082;2023-08-01T00:01:57;16.40;99.90
5086;DHT22;4715;51.660;7.082;2023-08-01T00:04:19;16.40;99.90
5086;DHT22;4715;51.660;7.082;2023-08-01T00:06:41;16.40;99.90
5086;DHT22;4715;51.660;7.082;2023-08-01T00:09:03;16.40;99.90
5086;DHT22;4715;51.660;7.082;2023-08-01T00:11:26;16.40;99.90
5086;DHT22;4715;51.660;7.082;2023-08-01T00:13:48;16.40;99.90
5086;DHT22;4715;51.660;7.082;2023-08-01T00:16:10;16.40;99.90
5086;DHT22;4715;51.660;7.082;2023-08-01T00:18:33;16.40;99.90
5086;DHT22;4715;51.660;7.082;2023-08-01T00:20:56;16.40;99.90
5086;DHT22;4715;51.660;7.082;2023-08-01T00:23:19;16.40;99.90
5086;DHT22;4715;51.660;7.082;2023-08-01T00:25:41;16.40;99.90
5086;DHT22;4715;51.660;7.082;2023-08-01T00:28:05;16.50;99.90
5086;DHT22;4715;51.660;7.082;2023-08-01T00:30:26;16.40;99.90
5086;DHT22;4715;51.660;7.082;2023-08-01T00:32:49;16.50;99.90
5086;DHT22;4715;51.660;7.082;2023-08-01T00:35:11;16.50;99.90
5086;DHT22;4715;51.660;7.082;2023-08-01T00:37:33;16.50;99.90
5086;DHT22;4715;51.660;7.082;2023-08-01T00:39:54;16.50;99.90
5086;DHT22;4715;51.660;7.082;2023-08-01T00:42:16;16.50;99.90
5086;DHT22;4715;51.660;7.082;2023-08-01T00:44:39;16.50;99.90
5086;DHT22;4715;51.660;7.082;2023-08-01T00:47:02;16.50;99.90
5086;DHT22;4715;51.660;7.082;2023-08-01T00:49:24;16.50;99.90
5086;DHT22;4715;51.660;7.082;2023-08-01T00:51:46;16.50;99.90
5086;DHT22;4715;51.660;7.082;2023-08-01T00:54:09;16.40;99.90
5086;DHT22;4715;51.660;7.082;2023-08-01T00:56:33;16.50;99.90
5086;DHT22;4715;51.660;7.082;2023-08-01T00:58:55;16.40;99.90
5086;DHT22;4715;51.660;7.082;2023-08-01T01:01:18;16.40;99.90
5086;DHT22;4715;51.660;7.082;2023-08-01T01:03:40;16.40;99.90
5086;DHT22;4715;51.660;7.082;2023-08-01T01:06:11;16.40;99.90
5086;DHT22;4715;51.660;7.082;2023-08-01T01:08:36;16.40;99.90
5086;DHT22;4715;51.660;7.082;2023-08-01T01:10:58;16.40;99.90
5086;DHT22;4715;51.660;7.082;2023-08-01T01:13:19;16.40;99.90
5086;DHT22;4715;51.660;7.082;2023-08-01T01:15:41;16.40;99.90
5086;DHT22;4715;51.660;7.082;2023-08-01T01:18:05;16.40;99.90
5086;DHT22;4715;51.660;7.082;2023-08-01T01:20:33;16.40;99.90
5086;DHT22;4715;51.660;7.082;2023-08-01T01:22:58;16.40;99.90
5086;DHT22;4715;51.660;7.082;2023-08-01T01:25:22;16.40;99.90
5086;DHT22;4715;51.660;7.082;2023-08-01T01:27:45;16.40;99.90
5086;DHT22;4715;51.660;7.082;2023-08-01T01:30:08;16.40;99.90
5086;DHT22;4715;51.660;7.082;2023-08-01T01:32:31;16.30;99.90
5086;DHT22;4715;51.660;7.082;2023-08-01T01:34:52;16.40;99.90
5086;DHT22;4715;51.660;7.082;2023-08-01T01:37:15;16.30;99.90
5086;DHT22;4715;51.660;7.082;2023-08-01T01:39:37;16.30;99.90
5086;DHT22;4715;51.660;7.082;2023-08-01T01:41:59;16.40;99.90
5086;DHT22;4715;51.660;7.082;2023-08-01T01:44:21;16.40;99.90
5086;DHT22;4715;51.660;7.082;2023-08-01T01:46:43;16.40;99.90
5086;DHT22;4715;51.660;7.082;2023-08-01T01:49:04;16.40;99.90
5086;DHT22;4715;51.660;7.082;2023-08-01T01:51:27;16.40;99.90
5086;DHT22;4715;51.660;7.082;2023-08-01T01:53:50;16.40;99.90
5086;DHT22;4715;51.660;7.082;2023-08-01T01:56:12;16.40;99.90
5086;DHT22;4715;51.660;7.082;2023-08-01T01:58:34;16.40;99.90
5086;DHT22;4715;51.660;7.082;2023-08-01T02:00:56;16.40;99.90
5086;DHT22;4715;51.660;7.082;2023-08-01T02:03:18;16.40;99.90
5086;DHT22;4715;51.660;7.082;2023-08-01T02:05:39;16.40;99.90
5086;DHT22;4715;51.660;7.082;2023-08-01T02:08:01;16.40;99.90
5086;DHT22;4715;51.660;7.082;2023-08-01T02:10:26;16.40;99.90
5086;DHT22;4715;51.660;7.082;2023-08-01T02:12:48;16.40;99.90
5086;DHT22;4715;51.660;7.082;2023-08-01T02:15:10;16.40;99.90
5086;DHT22;4715;51.660;7.082;2023-08-01T02:17:32;16.40;99.90
5086;DHT22;4715;51.660;7.082;2023-08-01T02:19:54;16.40;99.90
5086;DHT22;4715;51.660;7.082;2023-08-01T02:22:17;16.40;99.90
5086;DHT22;4715;51.660;7.082;2023-08-01T02:24:39;16.40;99.90
5086;DHT22;4715;51.660;7.082;2023-08-01T02:27:03;16.40;99.90
5086;DHT22;4715;51.660;7.082;2023-08-01T02:29:25;16.40;99.90
5086;DHT22;4715;51.660;7.082;2023-08-01T02:31:47;16.40;99.90
5086;DHT22;4715;51.660;7.082;2023-08-01T02:34:08;16.40;99.90
5086;DHT22;4715;51.660;7.082;2023-08-01T02:36:30;16.40;99.90
5086;DHT22;4715;51.660;7.082;2023-08-01T02:38:52;16.40;99.90
5086;DHT22;4715;51.660;7.082;2023-08-01T02:41:14;16.40;99.90
5086;DHT22;4715;51.660;7.082;2023-08-01T02:43:37;16.40;99.90
5086;DHT22;4715;51.660;7.082;2023-08-01T02:45:59;16.40;99.90
5086;DHT22;4715;51.660;7.082;2023-08-01T02:48:22;16.40;99.90
5086;DHT22;4715;51.660;7.082;2023-08-01T02:50:43;16.40;99.90
5086;DHT22;4715;51.660;7.082;2023-08-01T02:53:06;16.40;99.90
5086;DHT22;4715;51.660;7.082;2023-08-01T02:55:28;16.40;99.90
5086;DHT22;4715;51.660;7.082;2023-08-01T02:57:50;16.40;99.90
5086;DHT22;4715;51.660;7.082;2023-08-01T03:00:14;16.40;99.90
5086;DHT22;4715;51.660;7.082;2023-08-01T03:02:38;16.40;99.90
5086;DHT22;4715;51.660;7.082;2023-08-01T03:05:00;16.40;99.90
5086;DHT22;4715;51.660;7.082;2023-08-01T03:07:25;16.40;99.90
5086;DHT22;4715;51.660;7.082;2023-08-01T03:09:47;16.40;99.90
5086;DHT22;4715;51.660;7.082;2023-08-01T03:12:09;16.40;99.90
5086;DHT22;4715;51.660;7.082;2023-08-01T03:14:30;16.40;99.90
5086;DHT22;4715;51.660;7.082;2023-08-01T03:16:54;16.40;99.90
5086;DHT22;4715;51.660;7.082;2023-08-01T03:19:16;16.40;99.90
5086;DHT22;4715;51.660;7.082;2023-08-01T03:21:38;16.40;99.90
5086;DHT22;4715;51.660;7.082;2023-08-01T03:24:01;16.40;99.90
5086;DHT22;4715;51.660;7.082;2023-08-01T03:26:23;16.40;99.90
5086;DHT22;4715;51.660;7.082;2023-08-01T03:28:44;16.40;99.90
5086;DHT22;4715;51.660;7.082;2023-08-01T03:31:06;16.40;99.90
5086;DHT22;4715;51.660;7.082;2023-08-01T03:33:29;16.40;99.90
5086;DHT22;4715;51.660;7.082;2023-08-01T03:35:52;16.40;99.90
5086;DHT22;4715;51.660;7.082;2023-08-01T03:38:13;16.40;99.90
5086;DHT22;4715;51.660;7.082;2023-08-01T03:40:35;16.40;99.90
5086;DHT22;4715;51.660;7.082;2023-08-01T03:42:59;16.30;99.90
5086;DHT22;4715;51.660;7.082;2023-08-01T03:45:21;16.30;99.90
5086;DHT22;4715;51.660;7.082;2023-08-01T03:47:42;16.30;99.90
5086;DHT22;4715;51.660;7.082;2023-08-01T03:50:06;16.30;99.90
5086;DHT22;4715;51.660;7.082;2023-08-01T03:52:28;16.30;99.90
5086;DHT22;4715;51.660;7.082;2023-08-01T03:54:54;16.30;99.90
5086;DHT22;4715;51.660;7.082;2023-08-01T03:57:16;16.30;99.90
5086;DHT22;4715;51.660;7.082;2023-08-01T03:59:38;16.30;99.90
5086;DHT22;4715;51.660;7.082;2023-08-01T04:02:00;16.30;99.90
5086;DHT22;4715;51.660;7.082;2023-08-01T04:04:22;16.30;99.90
5086;DHT22;4715;51.660;7.082;2023-08-01T04:06:45;16.30;99.90
5086;DHT22;4715;51.660;7.082;2023-08-01T04:09:07;16.20;99.90
5086;DHT22;4715;51.660;7.082;2023-08-01T04:11:30;16.20;99.90
5086;DHT22;4715;51.660;7.082;2023-08-01T04:13:52;16.10;99.90
5086;DHT22;4715;51.660;7.082;2023-08-01T04:16:14;16.10;99.90
5086;DHT22;4715;51.660;7.082;2023-08-01T04:18:36;16.00;99.90
5086;DHT22;4715;51.660;7.082;2023-08-01T04:20:58;16.00;99.90
5086;DHT22;4715;51.660;7.082;2023-08-01T04:23:22;16.00;99.90
5086;DHT22;4715;51.660;7.082;2023-08-01T04:25:44;16.00;99.90
5086;DHT22;4715;51.660;7.082;2023-08-01T04:28:08;16.00;99.90
5086;DHT22;4715;51.660;7.082;2023-08-01T04:30:30;16.00;99.90
5086;DHT22;4715;51.660;7.082;2023-08-01T04:32:53;16.00;99.90
5086;DHT22;4715;51.660;7.082;2023-08-01T04:35:15;16.00;99.90
5086;DHT22;4715;51.660;7.082;2023-08-01T04:37:38;16.00;99.90
5086;DHT22;4715;51.660;7.082;2023-08-01T04:40:01;16.00;99.90
5086;DHT22;4715;51.660;7.082;2023-08-01T04:42:23;16.00;99.90
5086;DHT22;4715;51.660;7.082;2023-08-01T04:44:45;16.00;99.90
5086;DHT22;4715;51.660;7.082;2023-08-01T04:47:07;16.00;99.90
5086;DHT22;4715;51.660;7.082;2023-08-01T04:49:29;16.00;99.90
5086;DHT22;4715;51.660;7.082;2023-08-01T04:51:51;16.00;99.90
5086;DHT22;4715;51.660;7.082;2023-08-01T04:54:13;16.00;99.90
5086;DHT22;4715;51.660;7.082;2023-08-01T04:56:36;16.00;99.90
5086;DHT22;4715;51.660;7.082;2023-08-01T04:58:58;16.00;99.90
5086;DHT22;4715;51.660;7.082;2023-08-01T05:01:20;16.00;99.90
5086;DHT22;4715;51.660;7.082;2023-08-01T05:03:42;16.00;99.90
5086;DHT22;4715;51.660;7.082;2023-08-01T05:06:03;16.00;99.90
5086;DHT22;4715;51.660;7.082;2023-08-01T05:08:25;16.00;99.90
5086;DHT22;4715;51.660;7.082;2023-08-01T05:10:47;16.00;99.90
5086;DHT22;4715;51.660;7.082;2023-08-01T05:13:10;16.00;99.90
5086;DHT22;4715;51.660;7.082;2023-08-01T05:15:32;16.00;99.90
5086;DHT22;4715;51.660;7.082;2023-08-01T05:17:54;16.00;99.90
5086;DHT22;4715;51.660;7.082;2023-08-01T05:20:16;16.00;99.90
5086;DHT22;4715;51.660;7.082;2023-08-01T05:22:38;16.00;99.90
5086;DHT22;4715;51.660;7.082;2023-08-01T05:25:00;16.00;99.90
5086;DHT22;4715;51.660;7.082;2023-08-01T05:27:22;16.00;99.90
5086;DHT22;4715;51.660;7.082;2023-08-01T05:29:45;16.00;99.90
5086;DHT22;4715;51.660;7.082;2023-08-01T05:32:07;16.00;99.90
5086;DHT22;4715;51.660;7.082;2023-08-01T05:34:29;16.00;99.90
5086;DHT22;4715;51.660;7.082;2023-08-01T05:36:51;16.00;99.90
5086;DHT22;4715;51.660;7.082;2023-08-01T05:39:12;16.00;99.90
5086;DHT22;4715;51.660;7.082;2023-08-01T05:41:34;16.00;99.90
5086;DHT22;4715;51.660;7.082;2023-08-01T05:43:58;16.10;99.90
5086;DHT22;4715;51.660;7.082;2023-08-01T05:46:21;16.10;99.90
5086;DHT22;4715;51.660;7.082;2023-08-01T05:48:43;16.10;99.90
5086;DHT22;4715;51.660;7.082;2023-08-01T05:51:04;16.10;99.90
5086;DHT22;4715;51.660;7.082;2023-08-01T05:53:26;16.10;99.90
5086;DHT22;4715;51.660;7.082;2023-08-01T05:55:49;16.10;99.90
5086;DHT22;4715;51.660;7.082;2023-08-01T05:58:11;16.20;99.90
5086;DHT22;4715;51.660;7.082;2023-08-01T06:00:32;16.10;99.90
5086;DHT22;4715;51.660;7.082;2023-08-01T06:02:56;16.10;99.90
5086;DHT22;4715;51.660;7.082;2023-08-01T06:05:17;16.10;99.90
5086;DHT22;4715;51.660;7.082;2023-08-01T06:07:39;16.20;99.90
5086;DHT22;4715;51.660;7.082;2023-08-01T06:10:01;16.20;99.90
5086;DHT22;4715;51.660;7.082;2023-08-01T06:12:24;16.20;99.90
5086;DHT22;4715;51.660;7.082;2023-08-01T06:14:46;16.10;99.90
5086;DHT22;4715;51.660;7.082;2023-08-01T06:17:08;16.10;99.90
5086;DHT22;4715;51.660;7.082;2023-08-01T06:19:31;16.20;99.90
5086;DHT22;4715;51.660;7.082;2023-08-01T06:21:53;16.20;99.90
5086;DHT22;4715;51.660;7.082;2023-08-01T06:24:16;16.20;99.90
5086;DHT22;4715;51.660;7.082;2023-08-01T06:26:39;16.20;99.90
5086;DHT22;4715;51.660;7.082;2023-08-01T06:29:01;16.20;99.90
5086;DHT22;4715;51.660;7.082;2023-08-01T06:31:23;16.20;99.90
5086;DHT22;4715;51.660;7.082;2023-08-01T06:33:44;16.20;99.90
5086;DHT22;4715;51.660;7.082;2023-08-01T06:36:08;16.30;99.90
5086;DHT22;4715;51.660;7.082;2023-08-01T06:38:30;16.30;99.90
5086;DHT22;4715;51.660;7.082;2023-08-01T06:40:52;16.30;99.90
5086;DHT22;4715;51.660;7.082;2023-08-01T06:43:14;16.40;99.90
5086;DHT22;4715;51.660;7.082;2023-08-01T06:45:36;16.40;99.90
5086;DHT22;4715;51.660;7.082;2023-08-01T06:47:57;16.40;99.90
5086;DHT22;4715;51.660;7.082;2023-08-01T06:50:19;16.50;99.90
5086;DHT22;4715;51.660;7.082;2023-08-01T06:52:42;16.50;99.90
5086;DHT22;4715;51.660;7.082;2023-08-01T06:55:05;16.50;99.90
5086;DHT22;4715;51.660;7.082;2023-08-01T06:57:27;16.50;99.90
5086;DHT22;4715;51.660;7.082;2023-08-01T06:59:48;16.50;99.90
5086;DHT22;4715;51.660;7.082;2023-08-01T07:02:11;16.60;99.90
5086;DHT22;4715;51.660;7.082;2023-08-01T07:04:33;16.60;99.90
5086;DHT22;4715;51.660;7.082;2023-08-01T07:06:55;16.60;99.90
5086;DHT22;4715;51.660;7.082;2023-08-01T07:09:19;16.70;99.90
5086;DHT22;4715;51.660;7.082;2023-08-01T07:11:40;16.70;99.90
5086;DHT22;4715;51.660;7.082;2023-08-01T07:14:02;16.80;99.90
5086;DHT22;4715;51.660;7.082;2023-08-01T07:16:24;16.80;99.90
5086;DHT22;4715;51.660;7.082;2023-08-01T07:18:46;16.90;99.90
5086;DHT22;4715;51.660;7.082;2023-08-01T07:21:08;16.90;99.90
5086;DHT22;4715;51.660;7.082;2023-08-01T07:23:31;17.00;99.90
5086;DHT22;4715;51.660;7.082;2023-08-01T07:25:54;17.10;99.90
5086;DHT22;4715;51.660;7.082;2023-08-01T07:28:16;17.10;99.90
5086;DHT22;4715;51.660;7.082;2023-08-01T07:30:38;17.20;99.90
5086;DHT22;4715;51.660;7.082;2023-08-01T07:32:59;17.30;99.90
5086;DHT22;4715;51.660;7.082;2023-08-01T07:35:21;17.30;99.90
5086;DHT22;4715;51.660;7.082;2023-08-01T07:37:43;17.30;99.90
5086;DHT22;4715;51.660;7.082;2023-08-01T07:40:05;17.30;99.90
5086;DHT22;4715;51.660;7.082;2023-08-01T07:42:29;17.30;99.90
5086;DHT22;4715;51.660;7.082;2023-08-01T07:44:50;17.30;99.90
5086;DHT22;4715;51.660;7.082;2023-08-01T07:47:13;17.30;99.90
5086;DHT22;4715;51.660;7.082;2023-08-01T07:49:34;17.30;99.90
5086;DHT22;4715;51.660;7.082;2023-08-01T07:51:56;17.40;99.90
5086;DHT22;4715;51.660;7.082;2023-08-01T07:54:18;17.40;99.90
5086;DHT22;4715;51.660;7.082;2023-08-01T07:56:40;17.40;99.90
5086;DHT22;4715;51.660;7.082;2023-08-01T07:59:05;17.40;99.90
5086;DHT22;4715;51.660;7.082;2023-08-01T08:01:27;17.30;99.90
5086;DHT22;4715;51.660;7.082;2023-08-01T08:03:49;17.30;99.90
5086;DHT22;4715;51.660;7.082;2023-08-01T08:06:11;17.40;99.90
5086;DHT22;4715;51.660;7.082;2023-08-01T08:08:33;17.40;99.90
5086;DHT22;4715;51.660;7.082;2023-08-01T08:11:11;17.40;99.90
5086;DHT22;4715;51.660;7.082;2023-08-01T08:13:33;17.50;99.90
5086;DHT22;4715;51.660;7.082;2023-08-01T08:15:57;17.50;99.90
5086;DHT22;4715;51.660;7.082;2023-08-01T08:18:19;17.60;99.90
5086;DHT22;4715;51.660;7.082;2023-08-01T08:20:43;17.60;99.90
5086;DHT22;4715;51.660;7.082;2023-08-01T08:23:05;17.60;99.90
5086;DHT22;4715;51.660;7.082;2023-08-01T08:25:27;17.70;99.90
5086;DHT22;4715;51.660;7.082;2023-08-01T08:27:49;17.80;99.90
5086;DHT22;4715;51.660;7.082;2023-08-01T08:30:11;17.80;99.90
5086;DHT22;4715;51.660;7.082;2023-08-01T08:32:35;17.90;99.90
5086;DHT22;4715;51.660;7.082;2023-08-01T08:35:00;18.00;99.90
5086;DHT22;4715;51.660;7.082;2023-08-01T08:37:22;18.00;99.90
5086;DHT22;4715;51.660;7.082;2023-08-01T08:39:44;18.00;99.90
5086;DHT22;4715;51.660;7.082;2023-08-01T08:42:06;18.10;99.90
5086;DHT22;4715;51.660;7.082;2023-08-01T08:44:28;18.20;99.90
5086;DHT22;4715;51.660;7.082;2023-08-01T08:46:52;18.40;99.90
5086;DHT22;4715;51.660;7.082;2023-08-01T08:49:16;18.50;99.90
5086;DHT22;4715;51.660;7.082;2023-08-01T08:51:40;18.50;99.90
5086;DHT22;4715;51.660;7.082;2023-08-01T08:54:02;18.60;99.90
5086;DHT22;4715;51.660;7.082;2023-08-01T08:56:25;18.80;99.90
5086;DHT22;4715;51.660;7.082;2023-08-01T08:58:47;18.90;99.90
5086;DHT22;4715;51.660;7.082;2023-08-01T09:01:10;19.00;99.90
5086;DHT22;4715;51.660;7.082;2023-08-01T09:03:32;19.00;99.90
5086;DHT22;4715;51.660;7.082;2023-08-01T09:06:00;19.10;99.90
5086;DHT22;4715;51.660;7.082;2023-08-01T09:08:26;19.20;99.90
5086;DHT22;4715;51.660;7.082;2023-08-01T09:10:49;19.10;99.90
5086;DHT22;4715;51.660;7.082;2023-08-01T09:13:11;19.10;99.90
5086;DHT22;4715;51.660;7.082;2023-08-01T09:15:32;19.00;99.90
5086;DHT22;4715;51.660;7.082;2023-08-01T09:17:55;19.00;99.90
5086;DHT22;4715;51.660;7.082;2023-08-01T09:20:20;19.00;99.90
5086;DHT22;4715;51.660;7.082;2023-08-01T09:22:45;19.10;99.90
5086;DHT22;4715;51.660;7.082;2023-08-01T09:25:07;19.30;99.90
5086;DHT22;4715;51.660;7.082;2023-08-01T09:27:33;19.40;99.90
5086;DHT22;4715;51.660;7.082;2023-08-01T09:30:05;19.50;99.90
5086;DHT22;4715;51.660;7.082;2023-08-01T09:32:29;19.60;99.90
5086;DHT22;4715;51.660;7.082;2023-08-01T09:34:58;19.60;99.90
5086;DHT22;4715;51.660;7.082;2023-08-01T09:37:21;19.60;99.90
5086;DHT22;4715;51.660;7.082;2023-08-01T09:39:53;19.50;99.90
5086;DHT22;4715;51.660;7.082;2023-08-01T09:42:15;19.40;99.90
5086;DHT22;4715;51.660;7.082;2023-08-01T09:44:37;19.30;99.90
5086;DHT22;4715;51.660;7.082;2023-08-01T09:47:00;19.20;99.90
5086;DHT22;4715;51.660;7.082;2023-08-01T09:49:22;19.00;99.90
5086;DHT22;4715;51.660;7.082;2023-08-01T09:51:48;18.90;99.90
5086;DHT22;4715;51.660;7.082;2023-08-01T09:54:10;18.70;99.90
5086;DHT22;4715;51.660;7.082;2023-08-01T09:56:33;18.70;99.90
5086;DHT22;4715;51.660;7.082;2023-08-01T09:58:56;18.60;99.90
5086;DHT22;4715;51.660;7.082;2023-08-01T10:01:21;18.60;99.90
5086;DHT22;4715;51.660;7.082;2023-08-01T10:03:45;18.60;99.90
5086;DHT22;4715;51.660;7.082;2023-08-01T10:06:08;18.60;99.90
5086;DHT22;4715;51.660;7.082;2023-08-01T10:08:30;18.60;99.90
5086;DHT22;4715;51.660;7.082;2023-08-01T10:10:53;18.60;99.90
5086;DHT22;4715;51.660;7.082;2023-08-01T10:13:20;18.70;99.90
5086;DHT22;4715;51.660;7.082;2023-08-01T10:15:45;18.80;99.90
5086;DHT22;4715;51.660;7.082;2023-08-01T10:18:07;18.90;99.90
5086;DHT22;4715;51.660;7.082;2023-08-01T10:20:30;19.00;99.90
5086;DHT22;4715;51.660;7.082;2023-08-01T10:22:53;19.10;99.90
5086;DHT22;4715;51.660;7.082;2023-08-01T10:25:16;19.20;99.90
5086;DHT22;4715;51.660;7.082;2023-08-01T10:27:39;19.40;99.90
5086;DHT22;4715;51.660;7.082;2023-08-01T10:30:04;19.50;99.90
5086;DHT22;4715;51.660;7.082;2023-08-01T10:32:32;19.50;99.90
5086;DHT22;4715;51.660;7.082;2023-08-01T10:34:54;19.60;99.90
5086;DHT22;4715;51.660;7.082;2023-08-01T10:37:17;19.50;99.90
5086;DHT22;4715;51.660;7.082;2023-08-01T10:39:39;19.30;99.90
5086;DHT22;4715;51.660;7.082;2023-08-01T10:42:03;19.00;99.90
5086;DHT22;4715;51.660;7.082;2023-08-01T10:44:26;18.80;99.90
5086;DHT22;4715;51.660;7.082;2023-08-01T10:46:53;18.60;99.90
5086;DHT22;4715;51.660;7.082;2023-08-01T10:49:16;18.40;99.90
5086;DHT22;4715;51.660;7.082;2023-08-01T10:51:38;18.30;99.90
5086;DHT22;4715;51.660;7.082;2023-08-01T10:54:00;18.20;99.90
5086;DHT22;4715;51.660;7.082;2023-08-01T10:56:22;18.20;99.90
5086;DHT22;4715;51.660;7.082;2023-08-01T10:58:44;18.30;99.90
5086;DHT22;4715;51.660;7.082;2023-08-01T11:01:06;18.50;99.90
5086;DHT22;4715;51.660;7.082;2023-08-01T11:03:36;18.70;99.90
5086;DHT22;4715;51.660;7.082;2023-08-01T11:05:58;18.90;99.90
5086;DHT22;4715;51.660;7.082;2023-08-01T11:08:21;19.00;99.90
5086;DHT22;4715;51.660;7.082;2023-08-01T11:10:49;19.10;99.90
5086;DHT22;4715;51.660;7.082;2023-08-01T11:13:11;19.10;99.90
5086;DHT22;4715;51.660;7.082;2023-08-01T11:15:37;19.10;99.90
5086;DHT22;4715;51.660;7.082;2023-08-01T11:17:59;19.10;99.90
5086;DHT22;4715;51.660;7.082;2023-08-01T11:20:23;19.30;99.90
5086;DHT22;4715;51.660;7.082;2023-08-01T11:22:53;19.30;99.90
5086;DHT22;4715;51.660;7.082;2023-08-01T11:25:16;19.40;99.90
5086;DHT22;4715;51.660;7.082;2023-08-01T11:27:38;19.30;99.90
5086;DHT22;4715;51.660;7.082;2023-08-01T11:30:00;19.30;99.90
5086;DHT22;4715;51.660;7.082;2023-08-01T11:32:32;19.30;99.90
5086;DHT22;4715;51.660;7.082;2023-08-01T11:34:55;19.40;99.90
5086;DHT22;4715;51.660;7.082;2023-08-01T11:37:20;19.40;99.90
5086;DHT22;4715;51.660;7.082;2023-08-01T11:39:42;19.70;99.90
5086;DHT22;4715;51.660;7.082;2023-08-01T11:42:05;19.80;99.90
5086;DHT22;4715;51.660;7.082;2023-08-01T11:44:27;19.80;99.90
5086;DHT22;4715;51.660;7.082;2023-08-01T11:46:49;19.80;99.90
5086;DHT22;4715;51.660;7.082;2023-08-01T11:49:14;19.80;99.90
5086;DHT22;4715;51.660;7.082;2023-08-01T11:51:39;19.80;99.90
5086;DHT22;4715;51.660;7.082;2023-08-01T11:54:03;19.80;99.90
5086;DHT22;4715;51.660;7.082;2023-08-01T11:56:26;19.70;99.90
5086;DHT22;4715;51.660;7.082;2023-08-01T11:58:50;19.70;99.90
5086;DHT22;4715;51.660;7.082;2023-08-01T12:01:15;19.70;99.90
5086;DHT22;4715;51.660;7.082;2023-08-01T12:03:46;19.70;99.90
5086;DHT22;4715;51.660;7.082;2023-08-01T12:06:09;19.70;99.90
5086;DHT22;4715;51.660;7.082;2023-08-01T12:08:34;19.80;99.90
5086;DHT22;4715;51.660;7.082;2023-08-01T12:10:57;19.90;99.90
5086;DHT22;4715;51.660;7.082;2023-08-01T12:13:20;20.00;99.90
5086;DHT22;4715;51.660;7.082;2023-08-01T12:15:43;20.10;99.90
5086;DHT22;4715;51.660;7.082;2023-08-01T12:18:04;20.30;99.90
5086;DHT22;4715;51.660;7.082;2023-08-01T12:20:26;20.50;99.90
5086;DHT22;4715;51.660;7.082;2023-08-01T12:22:49;20.50;99.90
5086;DHT22;4715;51.660;7.082;2023-08-01T12:25:12;20.60;99.90
5086;DHT22;4715;51.660;7.082;2023-08-01T12:27:36;20.80;99.90
5086;DHT22;4715;51.660;7.082;2023-08-01T12:29:58;20.90;99.90
5086;DHT22;4715;51.660;7.082;2023-08-01T12:32:20;20.90;99.90
5086;DHT22;4715;51.660;7.082;2023-08-01T12:34:46;20.90;99.90
5086;DHT22;4715;51.660;7.082;2023-08-01T12:37:08;20.90;99.90
5086;DHT22;4715;51.660;7.082;2023-08-01T12:39:29;20.80;99.90
5086;DHT22;4715;51.660;7.082;2023-08-01T12:41:52;20.60;99.90
5086;DHT22;4715;51.660;7.082;2023-08-01T12:44:15;20.50;99.90
5086;DHT22;4715;51.660;7.082;2023-08-01T12:46:38;20.50;99.90
5086;DHT22;4715;51.660;7.082;2023-08-01T12:49:00;20.50;99.90
5086;DHT22;4715;51.660;7.082;2023-08-01T12:51:23;20.60;99.90
5086;DHT22;4715;51.660;7.082;2023-08-01T12:53:45;20.70;99.90
5086;DHT22;4715;51.660;7.082;2023-08-01T12:56:07;21.00;99.90
5086;DHT22;4715;51.660;7.082;2023-08-01T12:58:30;21.10;99.90
5086;DHT22;4715;51.660;7.082;2023-08-01T13:00:53;21.00;99.90
5086;DHT22;4715;51.660;7.082;2023-08-01T13:03:15;21.00;99.90
5086;DHT22;4715;51.660;7.082;2023-08-01T13:05:39;21.00;99.90
5086;DHT22;4715;51.660;7.082;2023-08-01T13:08:02;21.10;99.90
5086;DHT22;4715;51.660;7.082;2023-08-01T13:10:30;21.10;99.90
5086;DHT22;4715;51.660;7.082;2023-08-01T13:12:52;21.20;99.90
5086;DHT22;4715;51.660;7.082;2023-08-01T13:15:19;21.20;99.90
5086;DHT22;4715;51.660;7.082;2023-08-01T13:17:44;21.20;99.90
5086;DHT22;4715;51.660;7.082;2023-08-01T13:20:07;21.30;99.90
5086;DHT22;4715;51.660;7.082;2023-08-01T13:22:31;21.40;99.90
5086;DHT22;4715;51.660;7.082;2023-08-01T13:24:52;21.40;99.90
5086;DHT22;4715;51.660;7.082;2023-08-01T13:27:16;21.40;99.90
5086;DHT22;4715;51.660;7.082;2023-08-01T13:29:41;21.40;99.90
5086;DHT22;4715;51.660;7.082;2023-08-01T13:32:04;21.40;99.90
5086;DHT22;4715;51.660;7.082;2023-08-01T13:34:28;21.40;99.90
5086;DHT22;4715;51.660;7.082;2023-08-01T13:36:51;21.40;99.90
5086;DHT22;4715;51.660;7.082;2023-08-01T13:39:16;21.50;99.90
5086;DHT22;4715;51.660;7.082;2023-08-01T13:41:40;21.50;99.90
5086;DHT22;4715;51.660;7.082;2023-08-01T13:44:02;21.40;99.90
5086;DHT22;4715;51.660;7.082;2023-08-01T13:46:26;21.40;99.90
5086;DHT22;4715;51.660;7.082;2023-08-01T13:48:47;21.50;99.90
5086;DHT22;4715;51.660;7.082;2023-08-01T13:51:11;21.60;99.90
5086;DHT22;4715;51.660;7.082;2023-08-01T13:53:33;21.60;99.90
5086;DHT22;4715;51.660;7.082;2023-08-01T13:55:58;21.50;99.90
5086;DHT22;4715;51.660;7.082;2023-08-01T13:58:20;21.40;99.90
5086;DHT22;4715;51.660;7.082;2023-08-01T14:00:42;21.30;99.90
5086;DHT22;4715;51.660;7.082;2023-08-01T14:03:05;21.20;99.90
5086;DHT22;4715;51.660;7.082;2023-08-01T14:05:27;21.10;99.90
5086;DHT22;4715;51.660;7.082;2023-08-01T14:07:59;20.90;99.90
5086;DHT22;4715;51.660;7.082;2023-08-01T14:10:22;20.80;99.90
5086;DHT22;4715;51.660;7.082;2023-08-01T14:12:44;20.70;99.90
5086;DHT22;4715;51.660;7.082;2023-08-01T14:15:09;20.60;99.90
5086;DHT22;4715;51.660;7.082;2023-08-01T14:17:31;20.70;99.90
5086;DHT22;4715;51.660;7.082;2023-08-01T14:19:53;20.70;99.90
5086;DHT22;4715;51.660;7.082;2023-08-01T14:22:18;20.70;99.90
5086;DHT22;4715;51.660;7.082;2023-08-01T14:24:41;20.90;99.90
5086;DHT22;4715;51.660;7.082;2023-08-01T14:27:06;21.00;99.90
5086;DHT22;4715;51.660;7.082;2023-08-01T14:29:29;21.10;99.90
5086;DHT22;4715;51.660;7.082;2023-08-01T14:31:51;21.10;99.90
5086;DHT22;4715;51.660;7.082;2023-08-01T14:34:14;21.10;99.90
5086;DHT22;4715;51.660;7.082;2023-08-01T14:36:36;21.10;99.90
5086;DHT22;4715;51.660;7.082;2023-08-01T14:38:58;21.30;99.90
5086;DHT22;4715;51.660;7.082;2023-08-01T14:41:21;21.30;99.90
5086;DHT22;4715;51.660;7.082;2023-08-01T14:43:43;21.40;99.90
5086;DHT22;4715;51.660;7.082;2023-08-01T14:46:05;21.40;99.90
5086;DHT22;4715;51.660;7.082;2023-08-01T14:48:27;21.40;99.90
5086;DHT22;4715;51.660;7.082;2023-08-01T14:50:49;21.30;99.90
5086;DHT22;4715;51.660;7.082;2023-08-01T14:53:11;21.30;99.90
5086;DHT22;4715;51.660;7.082;2023-08-01T14:55:33;21.30;99.90
5086;DHT22;4715;51.660;7.082;2023-08-01T14:57:56;21.40;99.90
5086;DHT22;4715;51.660;7.082;2023-08-01T15:00:18;21.50;99.90
5086;DHT22;4715;51.660;7.082;2023-08-01T15:02:40;21.60;99.90
5086;DHT22;4715;51.660;7.082;2023-08-01T15:05:04;21.70;99.90
5086;DHT22;4715;51.660;7.082;2023-08-01T15:07:29;21.70;99.90
5086;DHT22;4715;51.660;7.082;2023-08-01T15:09:52;21.70;99.90
5086;DHT22;4715;51.660;7.082;2023-08-01T15:12:15;21.70;99.90
5086;DHT22;4715;51.660;7.082;2023-08-01T15:14:39;21.70;99.90
5086;DHT22;4715;51.660;7.082;2023-08-01T15:17:00;21.60;99.90
5086;DHT22;4715;51.660;7.082;2023-08-01T15:19:22;21.70;99.90
5086;DHT22;4715;51.660;7.082;2023-08-01T15:21:45;21.70;99.90
5086;DHT22;4715;51.660;7.082;2023-08-01T15:24:07;21.90;99.90
5086;DHT22;4715;51.660;7.082;2023-08-01T15:26:30;21.90;99.90
5086;DHT22;4715;51.660;7.082;2023-08-01T15:28:51;22.00;99.90
5086;DHT22;4715;51.660;7.082;2023-08-01T15:31:15;22.00;99.90
5086;DHT22;4715;51.660;7.082;2023-08-01T15:33:38;22.00;99.90